sensor_id;sensor_type;location;lat;lon;timestamp;temperature;humidity
7014;DHT22;3547;50.774;12.918;2023-08-30T00:01:55;13.40;1.00
7014;DHT22;3547;50.774;12.918;2023-08-30T00:04:21;13.40;1.00
7014;DHT22;3547;50.774;12.918;2023-08-30T00:06:48;13.40;1.00
7014;DHT22;3547;50.774;12.918;2023-08-30T00:09:14;13.30;1.00
7014;DHT22;3547;50.774;12.918;2023-08-30T00:11:40;13.10;1.00
7014;DHT22;3547;50.774;12.918;2023-08-30T00:14:06;13.20;1.00
7014;DHT22;3547;50.774;12.918;2023-08-30T00:16:33;13.20;1.00
7014;DHT22;3547;50.774;12.918;2023-08-30T00:19:00;13.20;1.00
7014;DHT22;3547;50.774;12.918;2023-08-30T00:21:26;13.30;1.00
7014;DHT22;3547;50.774;12.918;2023-08-30T00:23:53;13.20;1.00
7014;DHT22;3547;50.774;12.918;2023-08-30T00:26:19;13.20;1.00
7014;DHT22;3547;50.774;12.918;2023-08-30T00:28:45;13.20;1.00
7014;DHT22;3547;50.774;12.918;2023-08-30T00:31:11;13.20;1.00
7014;DHT22;3547;50.774;12.918;2023-08-30T00:33:37;13.20;1.00
7014;DHT22;3547;50.774;12.918;2023-08-30T00:36:03;13.20;1.00
7014;DHT22;3547;50.774;12.918;2023-08-30T00:38:32;13.10;1.00
7014;DHT22;3547;50.774;12.918;2023-08-30T00:40:59;13.10;1.00
7014;DHT22;3547;50.774;12.918;2023-08-30T00:43:25;12.90;1.00
7014;DHT22;3547;50.774;12.918;2023-08-30T00:45:51;12.90;1.00
7014;DHT22;3547;50.774;12.918;2023-08-30T00:48:19;13.00;1.00
7014;DHT22;3547;50.774;12.918;2023-08-30T00:50:46;13.00;1.00
7014;DHT22;3547;50.774;12.918;2023-08-30T00:53:12;13.00;1.00
7014;DHT22;3547;50.774;12.918;2023-08-30T00:55:39;13.00;1.00
7014;DHT22;3547;50.774;12.918;2023-08-30T00:58:05;13.00;1.00
7014;DHT22;3547;50.774;12.918;2023-08-30T01:00:33;12.90;1.00
7014;DHT22;3547;50.774;12.918;2023-08-30T01:02:59;13.00;1.00
7014;DHT22;3547;50.774;12.918;2023-08-30T01:05:25;12.90;1.00
7014;DHT22;3547;50.774;12.918;2023-08-30T01:07:52;12.90;1.00
7014;DHT22;3547;50.774;12.918;2023-08-30T01:10:21;12.90;1.00
7014;DHT22;3547;50.774;12.918;2023-08-30T01:12:49;12.90;1.00
7014;DHT22;3547;50.774;12.918;2023-08-30T01:15:19;12.90;1.00
7014;DHT22;3547;50.774;12.918;2023-08-30T01:17:48;13.00;1.00
7014;DHT22;3547;50.774;12.918;2023-08-30T01:20:15;12.90;1.00
7014;DHT22;3547;50.774;12.918;2023-08-30T01:23:06;12.90;1.00
7014;DHT22;3547;50.774;12.918;2023-08-30T01:28:08;12.70;1.00
7014;DHT22;3547;50.774;12.918;2023-08-30T01:30:37;12.70;1.00
7014;DHT22;3547;50.774;12.918;2023-08-30T01:33:05;12.70;1.00
7014;DHT22;3547;50.774;12.918;2023-08-30T01:35:35;12.70;1.00
7014;DHT22;3547;50.774;12.918;2023-08-30T01:38:03;12.70;1.00
7014;DHT22;3547;50.774;12.918;2023-08-30T01:40:36;12.70;1.00
7014;DHT22;3547;50.774;12.918;2023-08-30T01:43:03;12.80;1.00
7014;DHT22;3547;50.774;12.918;2023-08-30T01:45:33;12.90;1.00
7014;DHT22;3547;50.774;12.918;2023-08-30T01:48:01;12.90;1.00
7014;DHT22;3547;50.774;12.918;2023-08-30T01:50:28;12.90;1.00
7014;DHT22;3547;50.774;12.918;2023-08-30T01:52:55;12.90;1.00
7014;DHT22;3547;50.774;12.918;2023-08-30T01:55:23;12.90;1.00
7014;DHT22;3547;50.774;12.918;2023-08-30T01:57:50;12.90;1.00
7014;DHT22;3547;50.774;12.918;2023-08-30T02:00:17;12.90;1.00
7014;DHT22;3547;50.774;12.918;2023-08-30T02:02:43;12.90;1.00
7014;DHT22;3547;50.774;12.918;2023-08-30T02:05:09;12.80;1.00
7014;DHT22;3547;50.774;12.918;2023-08-30T02:08:04;12.90;1.00
7014;DHT22;3547;50.774;12.918;2023-08-30T02:10:35;12.90;1.00
7014;DHT22;3547;50.774;12.918;2023-08-30T02:13:04;12.80;1.00
7014;DHT22;3547;50.774;12.918;2023-08-30T02:15:33;12.80;1.00
7014;DHT22;3547;50.774;12.918;2023-08-30T02:18:00;12.90;1.00
7014;DHT22;3547;50.774;12.918;2023-08-30T02:20:26;12.80;1.00
7014;DHT22;3547;50.774;12.918;2023-08-30T02:22:58;12.90;1.00
7014;DHT22;3547;50.774;12.918;2023-08-30T02:25:24;12.90;1.00
7014;DHT22;3547;50.774;12.918;2023-08-30T02:27:50;12.90;1.00
7014;DHT22;3547;50.774;12.918;2023-08-30T02:30:16;13.00;1.00
7014;DHT22;3547;50.774;12.918;2023-08-30T02:32:42;13.00;1.00
7014;DHT22;3547;50.774;12.918;2023-08-30T02:35:09;13.00;1.00
7014;DHT22;3547;50.774;12.918;2023-08-30T02:37:35;13.10;1.00
7014;DHT22;3547;50.774;12.918;2023-08-30T02:40:01;13.00;1.00
7014;DHT22;3547;50.774;12.918;2023-08-30T02:42:28;13.10;1.00
7014;DHT22;3547;50.774;12.918;2023-08-30T02:44:55;13.10;1.00
7014;DHT22;3547;50.774;12.918;2023-08-30T02:47:21;13.00;1.00
7014;DHT22;3547;50.774;12.918;2023-08-30T02:49:47;13.00;1.00
7014;DHT22;3547;50.774;12.918;2023-08-30T02:52:13;13.10;1.00
7014;DHT22;3547;50.774;12.918;2023-08-30T02:54:40;13.10;1.00
7014;DHT22;3547;50.774;12.918;2023-08-30T02:57:06;13.10;1.00
7014;DHT22;3547;50.774;12.918;2023-08-30T02:59:32;13.00;1.00
7014;DHT22;3547;50.774;12.918;2023-08-30T03:05:20;13.00;1.00
7014;DHT22;3547;50.774;12.918;2023-08-30T03:07:47;13.00;1.00
7014;DHT22;3547;50.774;12.918;2023-08-30T03:10:13;13.00;1.00
7014;DHT22;3547;50.774;12.918;2023-08-30T03:12:39;13.00;1.00
7014;DHT22;3547;50.774;12.918;2023-08-30T03:15:06;12.90;1.00
7014;DHT22;3547;50.774;12.918;2023-08-30T03:17:32;12.80;1.00
7014;DHT22;3547;50.774;12.918;2023-08-30T03:19:58;12.80;1.00
7014;DHT22;3547;50.774;12.918;2023-08-30T03:22:24;12.90;1.00
7014;DHT22;3547;50.774;12.918;2023-08-30T03:24:51;12.90;1.00
7014;DHT22;3547;50.774;12.918;2023-08-30T03:27:17;13.00;1.00
7014;DHT22;3547;50.774;12.918;2023-08-30T03:29:45;13.00;1.00
7014;DHT22;3547;50.774;12.918;2023-08-30T03:32:15;13.10;1.00
7014;DHT22;3547;50.774;12.918;2023-08-30T03:34:47;13.10;1.00
7014;DHT22;3547;50.774;12.918;2023-08-30T03:37:14;13.00;1.00
7014;DHT22;3547;50.774;12.918;2023-08-30T03:39:41;12.90;1.00
7014;DHT22;3547;50.774;12.918;2023-08-30T03:42:07;12.90;1.00
7014;DHT22;3547;50.774;12.918;2023-08-30T03:44:34;12.90;1.00
7014;DHT22;3547;50.774;12.918;2023-08-30T03:47:00;12.90;1.00
7014;DHT22;3547;50.774;12.918;2023-08-30T03:49:26;12.90;1.00
7014;DHT22;3547;50.774;12.918;2023-08-30T03:51:53;12.90;1.00
7014;DHT22;3547;50.774;12.918;2023-08-30T03:54:19;12.90;1.00
7014;DHT22;3547;50.774;12.918;2023-08-30T03:56:45;12.80;1.00
7014;DHT22;3547;50.774;12.918;2023-08-30T03:59:11;12.90;1.00
7014;DHT22;3547;50.774;12.918;2023-08-30T04:01:38;12.80;1.00
7014;DHT22;3547;50.774;12.918;2023-08-30T04:04:04;12.80;1.00
7014;DHT22;3547;50.774;12.918;2023-08-30T04:06:31;12.90;1.00
7014;DHT22;3547;50.774;12.918;2023-08-30T04:08:57;12.90;1.00
7014;DHT22;3547;50.774;12.918;2023-08-30T04:11:24;12.90;1.00
7014;DHT22;3547;50.774;12.918;2023-08-30T04:13:50;13.00;1.00
7014;DHT22;3547;50.774;12.918;2023-08-30T04:16:18;13.00;1.00
7014;DHT22;3547;50.774;12.918;2023-08-30T04:18:44;13.10;1.00
7014;DHT22;3547;50.774;12.918;2023-08-30T04:21:10;13.10;1.00
7014;DHT22;3547;50.774;12.918;2023-08-30T04:23:37;13.10;1.00
7014;DHT22;3547;50.774;12.918;2023-08-30T04:26:03;13.10;1.00
7014;DHT22;3547;50.774;12.918;2023-08-30T04:31:51;13.10;1.00
7014;DHT22;3547;50.774;12.918;2023-08-30T04:34:17;13.10;1.00
7014;DHT22;3547;50.774;12.918;2023-08-30T04:36:44;13.10;1.00
7014;DHT22;3547;50.774;12.918;2023-08-30T04:39:10;13.10;1.00
7014;DHT22;3547;50.774;12.918;2023-08-30T04:41:37;13.10;1.00
7014;DHT22;3547;50.774;12.918;2023-08-30T04:44:03;13.10;1.00
7014;DHT22;3547;50.774;12.918;2023-08-30T04:46:29;13.10;1.00
7014;DHT22;3547;50.774;12.918;2023-08-30T04:48:55;13.10;1.00
7014;DHT22;3547;50.774;12.918;2023-08-30T04:51:22;13.10;1.00
7014;DHT22;3547;50.774;12.918;2023-08-30T04:53:48;13.10;1.00
7014;DHT22;3547;50.774;12.918;2023-08-30T04:56:14;13.00;1.00
7014;DHT22;3547;50.774;12.918;2023-08-30T05:02:03;13.00;1.00
7014;DHT22;3547;50.774;12.918;2023-08-30T05:04:29;13.10;1.00
7014;DHT22;3547;50.774;12.918;2023-08-30T05:06:55;13.10;1.00
7014;DHT22;3547;50.774;12.918;2023-08-30T05:09:22;13.10;1.00
7014;DHT22;3547;50.774;12.918;2023-08-30T05:11:53;13.10;1.00
7014;DHT22;3547;50.774;12.918;2023-08-30T05:14:22;13.10;1.00
7014;DHT22;3547;50.774;12.918;2023-08-30T05:16:49;13.10;1.00
7014;DHT22;3547;50.774;12.918;2023-08-30T05:19:15;13.00;1.00
7014;DHT22;3547;50.774;12.918;2023-08-30T05:21:45;13.00;1.00
7014;DHT22;3547;50.774;12.918;2023-08-30T05:24:11;13.00;1.00
7014;DHT22;3547;50.774;12.918;2023-08-30T05:26:37;13.00;1.00
7014;DHT22;3547;50.774;12.918;2023-08-30T05:29:04;13.10;1.00
7014;DHT22;3547;50.774;12.918;2023-08-30T05:31:30;13.00;1.00
7014;DHT22;3547;50.774;12.918;2023-08-30T05:33:56;13.10;1.00
7014;DHT22;3547;50.774;12.918;2023-08-30T05:36:22;13.20;1.00
7014;DHT22;3547;50.774;12.918;2023-08-30T05:38:48;13.20;1.00
7014;DHT22;3547;50.774;12.918;2023-08-30T05:41:14;13.20;1.00
7014;DHT22;3547;50.774;12.918;2023-08-30T05:43:40;13.30;1.00
7014;DHT22;3547;50.774;12.918;2023-08-30T05:46:07;13.40;1.00
7014;DHT22;3547;50.774;12.918;2023-08-30T05:48:38;13.40;1.00
7014;DHT22;3547;50.774;12.918;2023-08-30T05:51:04;13.50;1.00
7014;DHT22;3547;50.774;12.918;2023-08-30T05:53:30;13.50;1.00
7014;DHT22;3547;50.774;12.918;2023-08-30T05:55:56;13.50;1.00
7014;DHT22;3547;50.774;12.918;2023-08-30T05:58:22;13.50;1.00
7014;DHT22;3547;50.774;12.918;2023-08-30T06:00:48;13.60;1.00
7014;DHT22;3547;50.774;12.918;2023-08-30T06:03:15;13.70;1.00
7014;DHT22;3547;50.774;12.918;2023-08-30T06:05:42;13.70;1.00
7014;DHT22;3547;50.774;12.918;2023-08-30T06:08:09;13.60;1.00
7014;DHT22;3547;50.774;12.918;2023-08-30T06:10:36;13.60;1.00
7014;DHT22;3547;50.774;12.918;2023-08-30T06:13:02;13.70;1.00
7014;DHT22;3547;50.774;12.918;2023-08-30T06:15:28;13.70;1.00
7014;DHT22;3547;50.774;12.918;2023-08-30T06:17:55;13.80;1.00
7014;DHT22;3547;50.774;12.918;2023-08-30T06:20:21;13.80;1.00
7014;DHT22;3547;50.774;12.918;2023-08-30T06:22:47;13.90;1.00
7014;DHT22;3547;50.774;12.918;2023-08-30T06:25:13;13.80;1.00
7014;DHT22;3547;50.774;12.918;2023-08-30T06:27:41;13.70;1.00
7014;DHT22;3547;50.774;12.918;2023-08-30T06:30:10;13.70;1.00
7014;DHT22;3547;50.774;12.918;2023-08-30T06:32:36;13.70;1.00
7014;DHT22;3547;50.774;12.918;2023-08-30T06:35:03;13.70;1.00
7014;DHT22;3547;50.774;12.918;2023-08-30T06:37:30;13.80;1.00
7014;DHT22;3547;50.774;12.918;2023-08-30T06:39:56;14.00;1.00
7014;DHT22;3547;50.774;12.918;2023-08-30T06:42:22;14.10;1.00
7014;DHT22;3547;50.774;12.918;2023-08-30T06:44:50;14.20;1.00
7014;DHT22;3547;50.774;12.918;2023-08-30T06:47:16;14.30;1.00
7014;DHT22;3547;50.774;12.918;2023-08-30T06:49:42;14.40;1.00
7014;DHT22;3547;50.774;12.918;2023-08-30T06:52:08;14.50;1.00
7014;DHT22;3547;50.774;12.918;2023-08-30T06:54:35;14.50;1.00
7014;DHT22;3547;50.774;12.918;2023-08-30T06:57:02;14.40;1.00
7014;DHT22;3547;50.774;12.918;2023-08-30T06:59:28;14.50;1.00
7014;DHT22;3547;50.774;12.918;2023-08-30T07:01:55;14.60;1.00
7014;DHT22;3547;50.774;12.918;2023-08-30T07:04:21;14.50;1.00
7014;DHT22;3547;50.774;12.918;2023-08-30T07:06:48;14.60;1.00
7014;DHT22;3547;50.774;12.918;2023-08-30T07:09:14;14.70;1.00
7014;DHT22;3547;50.774;12.918;2023-08-30T07:11:42;14.70;1.00
7014;DHT22;3547;50.774;12.918;2023-08-30T07:14:10;14.80;1.00
7014;DHT22;3547;50.774;12.918;2023-08-30T07:16:36;14.80;1.00
7014;DHT22;3547;50.774;12.918;2023-08-30T07:19:03;14.80;1.00
7014;DHT22;3547;50.774;12.918;2023-08-30T07:21:29;14.90;1.00
7014;DHT22;3547;50.774;12.918;2023-08-30T07:23:55;14.90;1.00
7014;DHT22;3547;50.774;12.918;2023-08-30T07:26:21;14.70;1.00
7014;DHT22;3547;50.774;12.918;2023-08-30T07:28:47;14.60;1.00
7014;DHT22;3547;50.774;12.918;2023-08-30T07:31:14;14.70;1.00
7014;DHT22;3547;50.774;12.918;2023-08-30T07:33:42;14.70;1.00
7014;DHT22;3547;50.774;12.918;2023-08-30T07:36:08;14.70;1.00
7014;DHT22;3547;50.774;12.918;2023-08-30T07:38:34;14.70;1.00
7014;DHT22;3547;50.774;12.918;2023-08-30T07:41:01;14.80;1.00
7014;DHT22;3547;50.774;12.918;2023-08-30T07:43:28;14.90;1.00
7014;DHT22;3547;50.774;12.918;2023-08-30T07:45:54;15.10;1.00
7014;DHT22;3547;50.774;12.918;2023-08-30T07:48:20;15.20;1.00
7014;DHT22;3547;50.774;12.918;2023-08-30T07:50:46;15.40;1.00
7014;DHT22;3547;50.774;12.918;2023-08-30T07:53:12;15.50;1.00
7014;DHT22;3547;50.774;12.918;2023-08-30T07:55:39;15.60;1.00
7014;DHT22;3547;50.774;12.918;2023-08-30T07:58:06;15.60;1.00
7014;DHT22;3547;50.774;12.918;2023-08-30T08:00:34;15.60;1.00
7014;DHT22;3547;50.774;12.918;2023-08-30T08:03:00;15.40;1.00
7014;DHT22;3547;50.774;12.918;2023-08-30T08:05:27;15.40;1.00
7014;DHT22;3547;50.774;12.918;2023-08-30T08:07:53;15.20;1.00
7014;DHT22;3547;50.774;12.918;2023-08-30T08:10:20;15.20;1.00
7014;DHT22;3547;50.774;12.918;2023-08-30T08:12:46;15.40;1.00
7014;DHT22;3547;50.774;12.918;2023-08-30T08:15:12;15.50;1.00
7014;DHT22;3547;50.774;12.918;2023-08-30T08:17:38;15.60;1.00
7014;DHT22;3547;50.774;12.918;2023-08-30T08:20:05;15.70;1.00
7014;DHT22;3547;50.774;12.918;2023-08-30T08:22:31;15.80;1.00
7014;DHT22;3547;50.774;12.918;2023-08-30T08:24:58;15.80;1.00
7014;DHT22;3547;50.774;12.918;2023-08-30T08:27:27;15.90;1.00
7014;DHT22;3547;50.774;12.918;2023-08-30T08:29:53;15.90;1.00
7014;DHT22;3547;50.774;12.918;2023-08-30T08:32:19;15.90;1.00
7014;DHT22;3547;50.774;12.918;2023-08-30T08:34:46;16.00;1.00
7014;DHT22;3547;50.774;12.918;2023-08-30T08:37:12;15.90;1.00
7014;DHT22;3547;50.774;12.918;2023-08-30T08:39:38;15.80;1.00
7014;DHT22;3547;50.774;12.918;2023-08-30T08:42:04;16.00;1.00
7014;DHT22;3547;50.774;12.918;2023-08-30T08:44:32;16.20;1.00
7014;DHT22;3547;50.774;12.918;2023-08-30T08:46:59;16.10;1.00
7014;DHT22;3547;50.774;12.918;2023-08-30T08:49:25;16.20;1.00
7014;DHT22;3547;50.774;12.918;2023-08-30T08:51:55;16.10;1.00
7014;DHT22;3547;50.774;12.918;2023-08-30T08:54:22;16.20;1.00
7014;DHT22;3547;50.774;12.918;2023-08-30T08:56:48;16.20;1.00
7014;DHT22;3547;50.774;12.918;2023-08-30T08:59:15;16.30;1.00
7014;DHT22;3547;50.774;12.918;2023-08-30T09:01:42;16.40;1.00
7014;DHT22;3547;50.774;12.918;2023-08-30T09:04:10;16.30;1.00
7014;DHT22;3547;50.774;12.918;2023-08-30T09:06:37;16.50;1.00
7014;DHT22;3547;50.774;12.918;2023-08-30T09:09:05;16.60;1.00
7014;DHT22;3547;50.774;12.918;2023-08-30T09:11:32;16.60;1.00
7014;DHT22;3547;50.774;12.918;2023-08-30T09:13:58;16.80;1.00
7014;DHT22;3547;50.774;12.918;2023-08-30T09:16:25;16.80;1.00
7014;DHT22;3547;50.774;12.918;2023-08-30T09:22:39;17.10;1.00
7014;DHT22;3547;50.774;12.918;2023-08-30T09:25:10;17.30;1.00
7014;DHT22;3547;50.774;12.918;2023-08-30T09:27:36;17.30;1.00
7014;DHT22;3547;50.774;12.918;2023-08-30T09:30:05;17.60;1.00
7014;DHT22;3547;50.774;12.918;2023-08-30T09:32:41;17.60;1.00
7014;DHT22;3547;50.774;12.918;2023-08-30T09:35:08;17.70;1.00
7014;DHT22;3547;50.774;12.918;2023-08-30T09:37:34;17.80;1.00
7014;DHT22;3547;50.774;12.918;2023-08-30T09:40:01;17.60;1.00
7014;DHT22;3547;50.774;12.918;2023-08-30T09:42:28;17.50;1.00
7014;DHT22;3547;50.774;12.918;2023-08-30T09:44:54;17.40;1.00
7014;DHT22;3547;50.774;12.918;2023-08-30T09:47:20;17.40;1.00
7014;DHT22;3547;50.774;12.918;2023-08-30T09:49:50;17.70;1.00
7014;DHT22;3547;50.774;12.918;2023-08-30T09:52:18;17.90;1.00
7014;DHT22;3547;50.774;12.918;2023-08-30T09:54:47;18.10;1.00
7014;DHT22;3547;50.774;12.918;2023-08-30T09:57:13;18.30;1.00
7014;DHT22;3547;50.774;12.918;2023-08-30T09:59:40;18.50;1.00
7014;DHT22;3547;50.774;12.918;2023-08-30T10:02:08;18.20;1.00
7014;DHT22;3547;50.774;12.918;2023-08-30T10:04:38;18.10;1.00
7014;DHT22;3547;50.774;12.918;2023-08-30T10:07:07;17.70;1.00
7014;DHT22;3547;50.774;12.918;2023-08-30T10:09:37;17.40;1.00
7014;DHT22;3547;50.774;12.918;2023-08-30T10:12:06;17.30;1.00
7014;DHT22;3547;50.774;12.918;2023-08-30T10:14:33;17.40;1.00
7014;DHT22;3547;50.774;12.918;2023-08-30T10:17:03;17.60;1.00
7014;DHT22;3547;50.774;12.918;2023-08-30T10:19:31;17.80;1.00
7014;DHT22;3547;50.774;12.918;2023-08-30T10:22:04;18.00;1.00
7014;DHT22;3547;50.774;12.918;2023-08-30T10:24:35;17.70;1.00
7014;DHT22;3547;50.774;12.918;2023-08-30T10:27:05;17.90;1.00
7014;DHT22;3547;50.774;12.918;2023-08-30T10:29:34;18.10;1.00
7014;DHT22;3547;50.774;12.918;2023-08-30T10:32:04;18.20;1.00
7014;DHT22;3547;50.774;12.918;2023-08-30T10:34:35;18.40;1.00
7014;DHT22;3547;50.774;12.918;2023-08-30T10:37:11;18.70;1.00
7014;DHT22;3547;50.774;12.918;2023-08-30T10:39:42;18.80;1.00
7014;DHT22;3547;50.774;12.918;2023-08-30T10:42:10;18.60;1.00
7014;DHT22;3547;50.774;12.918;2023-08-30T10:44:49;18.60;1.00
7014;DHT22;3547;50.774;12.918;2023-08-30T10:47:27;18.50;1.00
7014;DHT22;3547;50.774;12.918;2023-08-30T10:49:59;18.80;1.00
7014;DHT22;3547;50.774;12.918;2023-08-30T10:52:30;19.10;1.00
7014;DHT22;3547;50.774;12.918;2023-08-30T10:55:14;19.20;1.00
7014;DHT22;3547;50.774;12.918;2023-08-30T10:57:45;19.10;1.00
7014;DHT22;3547;50.774;12.918;2023-08-30T11:00:19;19.20;1.00
7014;DHT22;3547;50.774;12.918;2023-08-30T11:02:47;19.60;1.00
7014;DHT22;3547;50.774;12.918;2023-08-30T11:05:16;19.60;1.00
7014;DHT22;3547;50.774;12.918;2023-08-30T11:07:45;19.60;1.00
7014;DHT22;3547;50.774;12.918;2023-08-30T11:10:12;19.50;1.00
7014;DHT22;3547;50.774;12.918;2023-08-30T11:12:43;19.40;1.00
7014;DHT22;3547;50.774;12.918;2023-08-30T11:15:11;19.40;1.00
7014;DHT22;3547;50.774;12.918;2023-08-30T11:17:40;19.40;1.00
7014;DHT22;3547;50.774;12.918;2023-08-30T11:20:08;19.50;1.00
7014;DHT22;3547;50.774;12.918;2023-08-30T11:22:44;19.70;1.00
7014;DHT22;3547;50.774;12.918;2023-08-30T11:25:11;19.60;1.00
7014;DHT22;3547;50.774;12.918;2023-08-30T11:27:38;19.70;1.00
7014;DHT22;3547;50.774;12.918;2023-08-30T11:30:09;19.90;1.00
7014;DHT22;3547;50.774;12.918;2023-08-30T11:32:37;20.00;1.00
7014;DHT22;3547;50.774;12.918;2023-08-30T11:35:04;19.80;1.00
7014;DHT22;3547;50.774;12.918;2023-08-30T11:37:31;19.70;1.00
7014;DHT22;3547;50.774;12.918;2023-08-30T11:39:58;19.50;1.00
7014;DHT22;3547;50.774;12.918;2023-08-30T11:42:25;19.70;1.00
7014;DHT22;3547;50.774;12.918;2023-08-30T11:44:51;19.60;1.00
7014;DHT22;3547;50.774;12.918;2023-08-30T11:47:19;19.90;1.00
7014;DHT22;3547;50.774;12.918;2023-08-30T11:49:48;20.50;1.00
7014;DHT22;3547;50.774;12.918;2023-08-30T11:52:17;21.10;1.00
7014;DHT22;3547;50.774;12.918;2023-08-30T11:54:44;21.70;1.00
7014;DHT22;3547;50.774;12.918;2023-08-30T11:57:10;21.60;1.00
7014;DHT22;3547;50.774;12.918;2023-08-30T11:59:37;21.50;1.00
7014;DHT22;3547;50.774;12.918;2023-08-30T12:02:03;21.80;1.00
7014;DHT22;3547;50.774;12.918;2023-08-30T12:04:31;21.90;1.00
7014;DHT22;3547;50.774;12.918;2023-08-30T12:06:57;21.50;1.00
7014;DHT22;3547;50.774;12.918;2023-08-30T12:09:30;21.20;1.00
7014;DHT22;3547;50.774;12.918;2023-08-30T12:12:09;21.10;1.00
7014;DHT22;3547;50.774;12.918;2023-08-30T12:14:36;21.20;1.00
7014;DHT22;3547;50.774;12.918;2023-08-30T12:17:03;21.40;1.00
7014;DHT22;3547;50.774;12.918;2023-08-30T12:19:29;21.70;1.00
7014;DHT22;3547;50.774;12.918;2023-08-30T12:22:03;21.90;1.00
7014;DHT22;3547;50.774;12.918;2023-08-30T12:24:43;21.50;1.00
7014;DHT22;3547;50.774;12.918;2023-08-30T12:27:09;21.00;1.00
7014;DHT22;3547;50.774;12.918;2023-08-30T12:29:36;20.70;1.00
7014;DHT22;3547;50.774;12.918;2023-08-30T12:32:02;20.70;1.00
7014;DHT22;3547;50.774;12.918;2023-08-30T12:34:28;20.60;1.00
7014;DHT22;3547;50.774;12.918;2023-08-30T12:36:54;20.70;1.00
7014;DHT22;3547;50.774;12.918;2023-08-30T12:39:21;20.70;1.00
7014;DHT22;3547;50.774;12.918;2023-08-30T12:41:47;20.50;1.00
7014;DHT22;3547;50.774;12.918;2023-08-30T12:44:13;20.50;1.00
7014;DHT22;3547;50.774;12.918;2023-08-30T12:46:39;20.50;1.00
7014;DHT22;3547;50.774;12.918;2023-08-30T12:49:05;20.60;1.00
7014;DHT22;3547;50.774;12.918;2023-08-30T12:51:31;20.40;1.00
7014;DHT22;3547;50.774;12.918;2023-08-30T12:53:57;20.20;1.00
7014;DHT22;3547;50.774;12.918;2023-08-30T12:56:24;20.10;1.00
7014;DHT22;3547;50.774;12.918;2023-08-30T12:58:50;20.30;1.00
7014;DHT22;3547;50.774;12.918;2023-08-30T13:01:17;20.40;1.00
7014;DHT22;3547;50.774;12.918;2023-08-30T13:03:44;20.30;1.00
7014;DHT22;3547;50.774;12.918;2023-08-30T13:06:10;20.20;1.00
7014;DHT22;3547;50.774;12.918;2023-08-30T13:08:37;20.10;1.00
7014;DHT22;3547;50.774;12.918;2023-08-30T13:11:03;19.90;1.00
7014;DHT22;3547;50.774;12.918;2023-08-30T13:13:30;19.80;1.00
7014;DHT22;3547;50.774;12.918;2023-08-30T13:15:56;19.70;1.00
7014;DHT22;3547;50.774;12.918;2023-08-30T13:18:22;19.60;1.00
7014;DHT22;3547;50.774;12.918;2023-08-30T13:20:48;19.50;1.00
7014;DHT22;3547;50.774;12.918;2023-08-30T13:23:14;19.50;1.00
7014;DHT22;3547;50.774;12.918;2023-08-30T13:25:41;19.40;1.00
7014;DHT22;3547;50.774;12.918;2023-08-30T13:28:10;19.30;1.00
7014;DHT22;3547;50.774;12.918;2023-08-30T13:30:44;19.30;1.00
7014;DHT22;3547;50.774;12.918;2023-08-30T13:33:11;19.10;1.00
7014;DHT22;3547;50.774;12.918;2023-08-30T13:35:40;19.00;1.00
7014;DHT22;3547;50.774;12.918;2023-08-30T13:38:07;19.00;1.00
7014;DHT22;3547;50.774;12.918;2023-08-30T13:40:33;18.90;1.00
7014;DHT22;3547;50.774;12.918;2023-08-30T13:42:59;18.90;1.00
7014;DHT22;3547;50.774;12.918;2023-08-30T13:45:25;18.80;1.00
7014;DHT22;3547;50.774;12.918;2023-08-30T13:47:51;18.80;1.00
7014;DHT22;3547;50.774;12.918;2023-08-30T13:50:19;18.80;1.00
7014;DHT22;3547;50.774;12.918;2023-08-30T13:52:45;18.80;1.00
7014;DHT22;3547;50.774;12.918;2023-08-30T13:55:11;18.80;1.00
7014;DHT22;3547;50.774;12.918;2023-08-30T13:57:37;18.90;1.00
7014;DHT22;3547;50.774;12.918;2023-08-30T14:00:04;18.90;1.00
7014;DHT22;3547;50.774;12.918;2023-08-30T14:02:35;18.90;1.00
7014;DHT22;3547;50.774;12.918;2023-08-30T14:05:02;19.00;1.00
7014;DHT22;3547;50.774;12.918;2023-08-30T14:07:28;19.00;1.00
7014;DHT22;3547;50.774;12.918;2023-08-30T14:09:54;19.00;1.00
7014;DHT22;3547;50.774;12.918;2023-08-30T14:12:20;19.00;1.00
7014;DHT22;3547;50.774;12.918;2023-08-30T14:14:47;19.20;1.00
7014;DHT22;3547;50.774;12.918;2023-08-30T14:17:13;19.10;1.00
7014;DHT22;3547;50.774;12.918;2023-08-30T14:19:39;19.10;1.00
7014;DHT22;3547;50.774;12.918;2023-08-30T14:22:05;19.00;1.00
7014;DHT22;3547;50.774;12.918;2023-08-30T14:24:32;19.00;1.00
7014;DHT22;3547;50.774;12.918;2023-08-30T14:27:02;19.00;1.00
7014;DHT22;3547;50.774;12.918;2023-08-30T14:29:39;19.00;1.00
7014;DHT22;3547;50.774;12.918;2023-08-30T14:32:41;19.00;1.00
7014;DHT22;3547;50.774;12.918;2023-08-30T14:35:40;18.90;1.00
7014;DHT22;3547;50.774;12.918;2023-08-30T14:38:09;19.00;1.00
7014;DHT22;3547;50.774;12.918;2023-08-30T14:40:36;18.90;1.00
7014;DHT22;3547;50.774;12.918;2023-08-30T14:43:05;18.90;1.00
7014;DHT22;3547;50.774;12.918;2023-08-30T14:45:31;18.90;1.00
7014;DHT22;3547;50.774;12.918;2023-08-30T14:48:01;18.90;1.00
7014;DHT22;3547;50.774;12.918;2023-08-30T14:50:27;18.90;1.00
7014;DHT22;3547;50.774;12.918;2023-08-30T14:52:53;18.80;1.00
7014;DHT22;3547;50.774;12.918;2023-08-30T14:55:21;18.80;1.00
7014;DHT22;3547;50.774;12.918;2023-08-30T14:57:47;18.80;1.00
7014;DHT22;3547;50.774;12.918;2023-08-30T15:00:13;18.80;1.00
7014;DHT22;3547;50.774;12.918;2023-08-30T15:02:40;18.70;1.00
7014;DHT22;3547;50.774;12.918;2023-08-30T15:05:06;18.70;1.00
7014;DHT22;3547;50.774;12.918;2023-08-30T15:07:32;18.70;1.00
7014;DHT22;3547;50.774;12.918;2023-08-30T15:09:59;18.60;1.00
7014;DHT22;3547;50.774;12.918;2023-08-30T15:12:26;18.60;1.00
7014;DHT22;3547;50.774;12.918;2023-08-30T15:14:52;18.50;1.00
7014;DHT22;3547;50.774;12.918;2023-08-30T15:20:42;18.50;1.00
7014;DHT22;3547;50.774;12.918;2023-08-30T15:23:12;18.40;1.00
7014;DHT22;3547;50.774;12.918;2023-08-30T15:25:44;18.40;1.00
7014;DHT22;3547;50.774;12.918;2023-08-30T15:28:11;18.40;1.00
7014;DHT22;3547;50.774;12.918;2023-08-30T15:30:41;18.40;1.00
7014;DHT22;3547;50.774;12.918;2023-08-30T15:33:08;18.40;1.00
7014;DHT22;3547;50.774;12.918;2023-08-30T15:35:41;18.40;1.00
7014;DHT22;3547;50.774;12.918;2023-08-30T15:38:08;18.50;1.00
7014;DHT22;3547;50.774;12.918;2023-08-30T15:40:44;18.50;1.00
7014;DHT22;3547;50.774;12.918;2023-08-30T15:43:10;18.50;1.00
7014;DHT22;3547;50.774;12.918;2023-08-30T15:45:36;18.70;1.00
7014;DHT22;3547;50.774;12.918;2023-08-30T15:48:03;18.80;1.00
7014;DHT22;3547;50.774;12.918;2023-08-30T15:50:29;18.90;1.00
7014;DHT22;3547;50.774;12.918;2023-08-30T15:52:55;19.00;1.00
7014;DHT22;3547;50.774;12.918;2023-08-30T15:55:21;19.00;1.00
7014;DHT22;3547;50.774;12.918;2023-08-30T15:57:47;19.20;1.00
7014;DHT22;3547;50.774;12.918;2023-08-30T16:00:14;19.30;1.00
7014;DHT22;3547;50.774;12.918;2023-08-30T16:02:40;19.50;1.00
7014;DHT22;3547;50.774;12.918;2023-08-30T16:05:07;19.80;1.00
7014;DHT22;3547;50.774;12.918;2023-08-30T16:07:33;19.90;1.00
7014;DHT22;3547;50.774;12.918;2023-08-30T16:09:59;19.90;1.00
7014;DHT22;3547;50.774;12.918;2023-08-30T16:12:25;19.90;1.00
7014;DHT22;3547;50.774;12.918;2023-08-30T16:14:51;19.90;1.00
7014;DHT22;3547;50.774;12.918;2023-08-30T16:17:17;20.10;1.00
7014;DHT22;3547;50.774;12.918;2023-08-30T16:19:44;20.80;1.00
7014;DHT22;3547;50.774;12.918;2023-08-30T16:22:10;20.80;1.00
7014;DHT22;3547;50.774;12.918;2023-08-30T16:24:45;21.00;1.00